createdAt,value
2017-11-08T00:00:23.627Z,107.85
2017-11-08T00:02:51.157Z,107.35
2017-11-08T00:05:18.762Z,99.70
2017-11-08T00:07:46.320Z,115.22
2017-11-08T00:10:13.862Z,100.43
2017-11-08T00:12:41.559Z,101.90
2017-11-08T00:15:09.082Z,105.95
2017-11-08T00:17:39.368Z,101.93
2017-11-08T00:20:06.946Z,104.00
2017-11-08T00:22:34.471Z,105.63
2017-11-08T00:25:01.999Z,109.05
2017-11-08T00:27:29.782Z,114.32
2017-11-08T00:29:57.307Z,106.30
2017-11-08T00:32:24.834Z,106.43
2017-11-08T00:34:52.440Z,117.18
2017-11-08T00:37:20.004Z,110.28
2017-11-08T00:39:47.558Z,107.05
2017-11-08T00:42:15.262Z,110.57
2017-11-08T00:44:42.786Z,115.43
2017-11-08T00:47:10.336Z,102.50
2017-11-08T00:49:38.108Z,107.70
2017-11-08T00:52:05.660Z,101.12
2017-11-08T00:54:33.220Z,96.70
2017-11-08T00:57:00.983Z,92.00
2017-11-08T00:59:28.545Z,103.32
2017-11-08T01:01:56.061Z,89.93
2017-11-08T01:04:24.702Z,96.03
2017-11-08T01:06:52.244Z,89.28
2017-11-08T01:09:20.724Z,95.80
2017-11-08T01:11:48.411Z,95.25
2017-11-08T01:14:15.949Z,98.10
2017-11-08T01:16:43.467Z,96.65
2017-11-08T01:19:11.147Z,93.85
2017-11-08T01:21:38.675Z,93.28
2017-11-08T01:24:06.207Z,95.38
2017-11-08T01:26:33.935Z,101.75
2017-11-08T01:29:01.452Z,83.15
2017-11-08T01:31:28.971Z,96.75
2017-11-08T01:33:56.711Z,97.10
2017-11-08T01:36:24.235Z,106.95
2017-11-08T01:38:51.766Z,115.88
2017-11-08T01:41:25.526Z,103.93
2017-11-08T01:43:54.943Z,98.60
2017-11-08T01:46:22.517Z,94.50
2017-11-08T01:48:50.072Z,95.15
2017-11-08T01:51:18.548Z,91.05
2017-11-08T01:53:46.070Z,100.97
2017-11-08T01:56:13.767Z,84.07
2017-11-08T01:58:41.327Z,82.75
2017-11-08T02:01:08.847Z,90.72
2017-11-08T02:03:36.650Z,86.97
2017-11-08T02:06:04.187Z,82.95
2017-11-08T02:08:31.714Z,88.62
2017-11-08T02:10:59.531Z,97.30
2017-11-08T02:13:27.092Z,71.72
2017-11-08T02:15:56.607Z,75.05
2017-11-08T02:18:24.361Z,72.12
2017-11-08T02:20:51.882Z,73.97
2017-11-08T02:23:19.403Z,74.47
2017-11-08T02:25:47.140Z,74.25
2017-11-08T02:28:17.163Z,65.65
2017-11-08T02:30:44.679Z,70.75
2017-11-08T02:33:15.323Z,69.85
2017-11-08T02:35:42.837Z,57.85
2017-11-08T02:38:10.365Z,53.33
2017-11-08T02:40:38.151Z,53.22
2017-11-08T02:43:09.498Z,57.40
2017-11-08T02:45:37.037Z,53.65
2017-11-08T02:48:05.001Z,54.38
2017-11-08T02:50:32.561Z,49.58
2017-11-08T02:53:00.120Z,59.40
2017-11-08T02:55:27.695Z,50.92
2017-11-08T02:57:55.214Z,55.80
2017-11-08T03:00:22.737Z,55.15
2017-11-08T03:02:51.368Z,57.15
2017-11-08T03:05:18.940Z,50.53
2017-11-08T03:07:46.498Z,57.15
2017-11-08T03:10:14.365Z,56.88
2017-11-08T03:12:41.925Z,46.53
2017-11-08T03:15:09.491Z,53.72
2017-11-08T03:17:37.355Z,53.78
2017-11-08T03:20:04.201Z,46.53
2017-11-08T03:22:31.754Z,47.03
2017-11-08T03:24:59.330Z,45.30
2017-11-08T03:27:26.868Z,42.08
2017-11-08T03:29:54.429Z,42.17
2017-11-08T03:32:22.191Z,45.80
2017-11-08T03:34:49.752Z,47.95
2017-11-08T03:37:17.275Z,44.17
2017-11-08T03:39:44.975Z,53.75
2017-11-08T03:42:12.536Z,44.65
2017-11-08T03:44:40.125Z,39.72
2017-11-08T03:47:07.750Z,41.40
2017-11-08T03:49:35.310Z,39.47
2017-11-08T03:52:02.869Z,35.38
2017-11-08T03:54:30.633Z,34.83
2017-11-08T03:56:58.193Z,36.70
2017-11-08T03:59:25.752Z,33.80
2017-11-08T04:01:53.307Z,36.47
2017-11-08T04:04:20.870Z,34.35
2017-11-08T04:06:48.437Z,35.08
2017-11-08T04:09:16.004Z,32.80
2017-11-08T04:11:44.467Z,33.60
2017-11-08T04:14:12.040Z,32.28
2017-11-08T04:16:39.775Z,30.50
2017-11-08T04:19:07.298Z,31.35
2017-11-08T04:21:34.819Z,33.10
2017-11-08T04:24:02.775Z,33.00
2017-11-08T04:26:30.340Z,34.88
2017-11-08T04:28:57.893Z,32.50
2017-11-08T04:31:26.374Z,33.67
2017-11-08T04:33:55.071Z,31.15
2017-11-08T04:36:23.337Z,35.40
2017-11-08T04:38:51.079Z,31.02
2017-11-08T04:41:18.595Z,35.25
2017-11-08T04:43:46.114Z,39.45
2017-11-08T04:46:13.967Z,29.48
2017-11-08T04:48:41.486Z,34.58
2017-11-08T04:51:08.998Z,26.87
2017-11-08T04:53:36.552Z,29.85
2017-11-08T04:56:04.118Z,32.10
2017-11-08T04:58:31.649Z,28.50
2017-11-08T05:00:59.336Z,32.13
2017-11-08T05:03:26.862Z,30.67
2017-11-08T05:05:54.390Z,25.92
2017-11-08T05:08:22.221Z,26.67
2017-11-08T05:10:49.777Z,24.65
2017-11-08T05:13:17.336Z,24.70
2017-11-08T05:15:45.206Z,20.25
2017-11-08T05:18:12.762Z,20.80
2017-11-08T05:20:41.349Z,24.58
2017-11-08T05:23:09.194Z,35.85
2017-11-08T05:25:36.727Z,20.80
2017-11-08T05:28:04.278Z,23.73
2017-11-08T05:30:31.830Z,22.75
2017-11-08T05:32:59.352Z,21.85
2017-11-08T05:35:26.176Z,20.25
2017-11-08T05:37:54.448Z,20.42
2017-11-08T05:40:22.143Z,20.15
2017-11-08T05:42:49.911Z,17.08
2017-11-08T05:45:17.986Z,15.30
2017-11-08T05:47:45.528Z,15.75
2017-11-08T05:50:13.077Z,13.65
2017-11-08T05:52:40.720Z,14.55
2017-11-08T05:55:08.226Z,16.23
2017-11-08T05:57:35.789Z,11.35
2017-11-08T06:00:03.506Z,15.55
2017-11-08T06:02:31.054Z,18.33
2017-11-08T06:04:58.562Z,14.15
2017-11-08T06:07:26.503Z,12.07
2017-11-08T06:09:54.064Z,14.55
2017-11-08T06:12:21.621Z,17.15
2017-11-08T06:14:49.589Z,16.60
2017-11-08T06:17:17.126Z,11.50
2017-11-08T06:19:44.709Z,11.77
2017-11-08T06:22:12.264Z,13.62
2017-11-08T06:24:39.827Z,12.85
2017-11-08T06:27:07.386Z,12.20
2017-11-08T06:29:35.149Z,10.82
2017-11-08T06:32:02.710Z,13.25
2017-11-08T06:34:30.231Z,13.77
2017-11-08T06:36:57.787Z,13.55
2017-11-08T06:39:25.310Z,11.10
2017-11-08T06:41:52.861Z,8.93
2017-11-08T06:44:20.606Z,18.55
2017-11-08T06:46:48.114Z,14.20
2017-11-08T06:49:15.627Z,12.15
2017-11-08T06:51:49.818Z,24.77
2017-11-08T06:54:17.335Z,13.55
2017-11-08T06:56:44.854Z,9.85
2017-11-08T06:59:12.522Z,8.57
2017-11-08T07:01:40.075Z,10.65
2017-11-08T07:04:07.590Z,6.90
2017-11-08T07:06:36.927Z,12.82
2017-11-08T07:09:04.491Z,4.62
2017-11-08T07:11:32.053Z,5.40
2017-11-08T07:13:59.610Z,5.32
2017-11-08T07:16:27.122Z,7.35
2017-11-08T07:18:54.635Z,5.45
2017-11-08T07:21:22.413Z,4.15
2017-11-08T07:23:49.957Z,3.75
2017-11-08T07:26:17.508Z,8.15
2017-11-08T07:28:45.292Z,4.72
2017-11-08T07:31:12.831Z,4.55
2017-11-08T07:33:40.342Z,5.37
2017-11-08T07:36:08.210Z,2.70
2017-11-08T07:38:35.734Z,3.35
2017-11-08T07:41:03.276Z,8.20
2017-11-08T07:43:30.837Z,4.72
2017-11-08T07:45:58.392Z,4.32
2017-11-08T07:48:25.951Z,3.30
2017-11-08T07:50:54.138Z,7.78
2017-11-08T07:53:21.651Z,5.75
2017-11-08T07:55:54.951Z,6.62
2017-11-08T07:58:22.466Z,5.40
2017-11-08T08:00:49.992Z,4.40
2017-11-08T08:03:17.773Z,4.22
2017-11-08T08:05:45.314Z,3.65
2017-11-08T08:08:12.822Z,5.55
2017-11-08T08:10:40.614Z,3.75
2017-11-08T08:13:08.126Z,4.22
2017-11-08T08:15:36.576Z,4.87
2017-11-08T08:18:04.427Z,3.47
2017-11-08T08:20:31.939Z,4.00
2017-11-08T08:22:59.469Z,3.60
2017-11-08T08:25:27.120Z,4.00
2017-11-08T08:27:54.689Z,3.97
2017-11-08T08:30:22.240Z,3.92
2017-11-08T08:32:51.013Z,10.60
2017-11-08T08:35:18.543Z,6.35
2017-11-08T08:37:46.063Z,4.68
2017-11-08T08:40:13.784Z,5.82
2017-11-08T08:42:41.299Z,4.25
2017-11-08T08:45:09.054Z,6.28
2017-11-08T08:47:36.618Z,8.55
2017-11-08T08:50:04.130Z,4.40
2017-11-08T08:52:31.639Z,7.20
2017-11-08T08:54:59.465Z,5.78
2017-11-08T08:57:26.978Z,4.57
2017-11-08T08:59:54.495Z,8.18
2017-11-08T09:02:24.907Z,5.18
2017-11-08T09:04:52.467Z,5.30
2017-11-08T09:07:20.040Z,4.05
2017-11-08T09:09:47.584Z,6.80
2017-11-08T09:12:15.092Z,4.80
2017-11-08T09:14:42.610Z,6.35
2017-11-08T09:17:10.263Z,11.25
2017-11-08T09:19:37.821Z,8.82
2017-11-08T09:22:05.382Z,8.70
2017-11-08T09:24:34.885Z,7.22
2017-11-08T09:27:04.289Z,9.32
2017-11-08T09:29:34.743Z,11.23
2017-11-08T09:32:02.291Z,6.37
2017-11-08T09:34:29.843Z,32.25
2017-11-08T09:36:57.486Z,15.05
2017-11-08T09:39:25.057Z,37.53
2017-11-08T09:41:56.093Z,8.23
2017-11-08T09:44:23.857Z,20.85
2017-11-08T09:46:51.438Z,8.90
2017-11-08T09:49:18.975Z,6.60
2017-11-08T09:51:47.366Z,5.43
2017-11-08T09:54:14.915Z,8.25
2017-11-08T09:56:42.475Z,9.65
2017-11-08T09:59:12.078Z,6.40
2017-11-08T10:01:42.553Z,7.25
2017-11-08T10:04:10.084Z,7.97
2017-11-08T10:06:40.599Z,8.13
2017-11-08T10:09:08.154Z,6.70
2017-11-08T10:11:38.683Z,5.25
2017-11-08T10:14:07.271Z,4.12
2017-11-08T10:16:34.825Z,4.18
2017-11-08T10:19:03.140Z,4.15
2017-11-08T10:21:30.658Z,4.28
2017-11-08T10:23:59.036Z,4.37
2017-11-08T10:26:26.720Z,6.75
2017-11-08T10:28:54.870Z,10.52
2017-11-08T10:31:22.430Z,4.68
2017-11-08T10:33:49.938Z,6.62
2017-11-08T10:36:17.549Z,3.17
2017-11-08T10:38:45.125Z,3.92
2017-11-08T10:41:12.666Z,4.72
2017-11-08T10:43:40.600Z,4.30
2017-11-08T10:46:09.080Z,3.90
2017-11-08T10:48:37.497Z,3.85
2017-11-08T10:51:05.222Z,2.83
2017-11-08T10:53:32.736Z,3.50
2017-11-08T10:56:00.270Z,7.68
2017-11-08T10:58:28.055Z,14.35
2017-11-08T11:01:10.392Z,4.68
2017-11-08T11:03:38.275Z,6.05
2017-11-08T11:06:05.854Z,7.30
2017-11-08T11:08:33.386Z,5.53
2017-11-08T11:11:01.199Z,5.68
2017-11-08T11:13:28.727Z,5.22
2017-11-08T11:15:58.019Z,4.20
2017-11-08T11:18:25.987Z,3.62
2017-11-08T11:20:54.304Z,4.55
2017-11-08T11:23:21.819Z,4.72
2017-11-08T11:25:51.243Z,3.80
2017-11-08T11:28:18.785Z,5.28
2017-11-08T11:30:46.450Z,8.00
2017-11-08T11:33:14.215Z,3.40
2017-11-08T11:35:41.751Z,3.40
2017-11-08T11:38:11.134Z,7.80
2017-11-08T11:40:38.841Z,6.10
2017-11-08T11:43:06.403Z,5.55
2017-11-08T11:45:33.960Z,3.92
2017-11-08T11:48:01.704Z,3.55
2017-11-08T11:50:32.168Z,3.15
2017-11-08T11:52:59.698Z,3.47
2017-11-08T11:55:27.353Z,5.10
2017-11-08T11:57:54.878Z,5.25
2017-11-08T12:00:22.440Z,5.15
2017-11-08T12:02:50.000Z,4.07
2017-11-08T12:05:17.533Z,4.85
2017-11-08T12:07:45.076Z,4.32
2017-11-08T12:10:12.940Z,4.12
2017-11-08T12:12:40.495Z,5.85
2017-11-08T12:15:08.058Z,4.05
2017-11-08T12:17:35.820Z,2.85
2017-11-08T12:20:03.383Z,3.87
2017-11-08T12:22:30.944Z,5.43
2017-11-08T12:25:00.345Z,4.37
2017-11-08T12:27:32.508Z,3.17
2017-11-08T12:30:00.579Z,7.75
2017-11-08T12:32:28.650Z,4.00
2017-11-08T12:34:59.282Z,4.55
2017-11-08T12:37:27.840Z,10.13
2017-11-08T12:39:58.189Z,11.38
2017-11-08T12:42:26.466Z,7.62
2017-11-08T12:47:54.036Z,3.85
2017-11-08T12:50:21.789Z,4.18
2017-11-08T12:52:49.320Z,4.60
2017-11-08T12:55:16.851Z,4.35
2017-11-08T12:57:46.328Z,15.75
2017-11-08T13:00:13.839Z,4.00
2017-11-08T13:02:41.359Z,6.15
2017-11-08T13:05:08.923Z,4.35
2017-11-08T13:07:36.447Z,4.80
2017-11-08T13:10:03.959Z,4.20
2017-11-08T13:12:32.707Z,6.20
2017-11-08T13:15:00.696Z,4.10
2017-11-08T13:17:28.240Z,5.87
2017-11-08T13:19:56.106Z,4.18
2017-11-08T13:22:23.665Z,4.65
2017-11-08T13:24:51.328Z,6.50
2017-11-08T13:27:18.991Z,4.85
2017-11-08T13:29:47.061Z,16.27
2017-11-08T13:32:14.586Z,5.85
2017-11-08T13:34:42.426Z,5.43
2017-11-08T13:37:10.047Z,6.32
2017-11-08T13:39:37.579Z,8.68
2017-11-08T13:42:05.368Z,9.93
2017-11-08T13:44:32.891Z,5.68
2017-11-08T13:47:00.423Z,6.55
2017-11-08T13:49:27.983Z,7.53
2017-11-08T13:51:55.504Z,7.80
2017-11-08T13:54:23.019Z,7.85
2017-11-08T13:56:50.576Z,10.02
2017-11-08T13:59:18.125Z,8.32
2017-11-08T14:01:45.743Z,6.82
2017-11-08T14:04:13.405Z,8.30
2017-11-08T14:06:41.113Z,11.23
2017-11-08T14:09:08.625Z,11.48
2017-11-08T14:11:36.189Z,8.82
2017-11-08T14:14:03.766Z,10.48
2017-11-08T14:16:31.304Z,6.90
2017-11-08T14:18:58.869Z,7.87
2017-11-08T14:21:26.421Z,10.07
2017-11-08T14:23:53.982Z,16.40
2017-11-08T14:26:21.684Z,10.07
2017-11-08T14:28:49.204Z,9.63
2017-11-08T14:31:16.726Z,11.38
2017-11-08T14:33:44.507Z,6.75
2017-11-08T14:36:12.020Z,7.32
2017-11-08T14:38:39.547Z,7.55
2017-11-08T14:41:07.311Z,6.80
2017-11-08T14:43:34.865Z,8.23
2017-11-08T14:46:02.424Z,7.07
2017-11-08T14:48:30.173Z,14.27
2017-11-08T14:50:57.690Z,9.40
2017-11-08T14:53:31.677Z,12.85
2017-11-08T14:56:00.136Z,10.95
2017-11-08T14:58:29.552Z,8.00
2017-11-08T15:01:00.267Z,11.98
2017-11-08T15:03:27.787Z,10.35
2017-11-08T15:05:55.305Z,13.55
2017-11-08T15:08:22.855Z,10.65
2017-11-08T15:10:50.408Z,8.85
2017-11-08T15:13:18.069Z,11.02
2017-11-08T15:15:45.843Z,10.77
2017-11-08T15:18:13.391Z,11.02
2017-11-08T15:20:40.957Z,9.80
2017-11-08T15:23:08.692Z,13.13
2017-11-08T15:25:36.208Z,8.68
2017-11-08T15:28:03.735Z,12.98
2017-11-08T15:30:31.311Z,11.35
2017-11-08T15:32:58.850Z,11.60
2017-11-08T15:35:26.408Z,11.95
2017-11-08T15:37:54.187Z,15.30
2017-11-08T15:40:27.277Z,14.02
2017-11-08T15:42:54.823Z,13.68
2017-11-08T15:45:22.387Z,12.23
2017-11-08T15:47:49.908Z,14.52
2017-11-08T15:50:17.659Z,27.77
2017-11-08T15:52:45.186Z,27.77
2017-11-08T15:55:12.703Z,22.45
2017-11-08T15:57:40.271Z,17.70
2017-11-08T16:00:07.845Z,24.15
2017-11-08T16:05:35.864Z,13.13
2017-11-08T16:08:03.686Z,13.62
2017-11-08T16:10:34.234Z,13.77
2017-11-08T16:13:01.882Z,24.63
2017-11-08T16:15:29.645Z,18.02
2017-11-08T16:17:57.183Z,16.50
2017-11-08T16:20:24.815Z,17.08
2017-11-08T16:22:52.591Z,23.73
2017-11-08T16:25:20.115Z,15.65
2017-11-08T16:27:47.664Z,15.40
2017-11-08T16:30:15.717Z,16.40
2017-11-08T16:32:43.377Z,13.85
2017-11-08T16:35:11.969Z,14.25
2017-11-08T16:37:39.827Z,20.50
2017-11-08T16:40:07.419Z,17.48
2017-11-08T16:42:35.075Z,20.90
2017-11-08T16:45:02.915Z,30.37
2017-11-08T16:47:30.576Z,14.55
2017-11-08T16:49:58.103Z,15.48
2017-11-08T16:52:25.901Z,15.13
2017-11-08T16:54:53.577Z,19.12
2017-11-08T16:57:21.141Z,18.33
2017-11-08T16:59:50.117Z,17.80
2017-11-08T17:02:18.635Z,13.30
2017-11-08T17:04:49.438Z,14.07
2017-11-08T17:07:19.103Z,16.37
2017-11-08T17:09:47.058Z,21.48
2017-11-08T17:12:15.596Z,13.80
2017-11-08T17:14:43.352Z,16.60
2017-11-08T17:17:10.919Z,18.80
2017-11-08T17:19:38.469Z,19.87
2017-11-08T17:22:06.047Z,14.00
2017-11-08T17:24:33.612Z,19.15
2017-11-08T17:27:01.150Z,11.12
2017-11-08T17:29:28.707Z,16.42
2017-11-08T17:31:56.266Z,15.18
2017-11-08T17:34:23.928Z,17.40
2017-11-08T17:36:51.691Z,16.85
2017-11-08T17:39:19.240Z,14.13
2017-11-08T17:41:46.756Z,15.65
2017-11-08T17:44:14.304Z,15.93
2017-11-08T17:46:41.864Z,16.23
2017-11-08T17:49:09.381Z,18.17
2017-11-08T17:51:37.182Z,19.50
2017-11-08T17:54:04.724Z,15.20
2017-11-08T17:56:32.253Z,12.35
2017-11-08T17:59:00.070Z,19.23
2017-11-08T18:01:27.690Z,14.60
2017-11-08T18:03:55.353Z,16.87
2017-11-08T18:06:23.122Z,17.98
2017-11-08T18:08:50.984Z,17.33
2017-11-08T18:11:18.644Z,16.95
2017-11-08T18:13:46.566Z,15.57
2017-11-08T18:16:14.473Z,15.75
2017-11-08T18:18:42.363Z,19.95
2017-11-08T18:21:10.499Z,16.00
2017-11-08T18:23:38.386Z,17.95
2017-11-08T18:26:06.254Z,21.70
2017-11-08T18:28:34.239Z,23.80
2017-11-08T18:31:01.904Z,31.35
2017-11-08T18:33:29.624Z,25.75
2017-11-08T18:35:57.387Z,16.48
2017-11-08T18:38:24.978Z,22.58
2017-11-08T18:40:52.537Z,25.95
2017-11-08T18:43:20.397Z,18.25
2017-11-08T18:45:47.947Z,16.17
2017-11-08T18:48:15.718Z,19.80
2017-11-08T18:50:43.889Z,17.98
2017-11-08T18:53:11.653Z,36.08
2017-11-08T18:55:39.520Z,30.62
2017-11-08T18:58:07.450Z,16.55
2017-11-08T19:00:35.150Z,20.05
2017-11-08T19:03:02.982Z,20.67
2017-11-08T19:05:31.101Z,21.98
2017-11-08T19:07:58.934Z,22.25
2017-11-08T19:10:26.639Z,17.02
2017-11-08T19:12:55.124Z,28.48
2017-11-08T19:15:22.943Z,31.23
2017-11-08T19:17:50.828Z,24.52
2017-11-08T19:20:18.708Z,43.13
2017-11-08T19:22:46.413Z,23.23
2017-11-08T19:25:14.234Z,18.10
2017-11-08T19:27:42.396Z,17.70
2017-11-08T19:30:10.263Z,15.38
2017-11-08T19:32:38.140Z,19.58
2017-11-08T19:35:06.200Z,21.60
2017-11-08T19:37:34.067Z,17.85
2017-11-08T19:40:01.837Z,21.95
2017-11-08T19:42:29.902Z,15.82
2017-11-08T19:44:58.141Z,16.52
2017-11-08T19:47:25.843Z,16.33
2017-11-08T19:49:53.602Z,23.02
2017-11-08T19:52:21.477Z,14.48
2017-11-08T19:54:50.260Z,18.50
2017-11-08T19:57:18.548Z,16.75
2017-11-08T19:59:46.499Z,14.95
2017-11-08T20:02:14.295Z,22.37
2017-11-08T20:04:42.147Z,21.60
2017-11-08T20:07:09.967Z,18.17
2017-11-08T20:09:37.786Z,21.75
2017-11-08T20:12:05.836Z,15.73
2017-11-08T20:14:33.699Z,18.87
2017-11-08T20:17:01.564Z,21.00
2017-11-08T20:19:30.359Z,23.73
2017-11-08T20:21:58.137Z,20.00
2017-11-08T20:24:26.098Z,18.65
2017-11-08T20:26:54.163Z,18.58
2017-11-08T20:29:21.944Z,32.30
2017-11-08T20:31:50.839Z,23.00
2017-11-08T20:34:18.893Z,21.52
2017-11-08T20:36:46.747Z,20.10
2017-11-08T20:39:14.734Z,24.30
2017-11-08T20:41:42.652Z,20.17
2017-11-08T20:44:11.064Z,25.45
2017-11-08T20:46:38.827Z,22.05
2017-11-08T20:49:06.910Z,19.60
2017-11-08T20:51:35.175Z,19.15
2017-11-08T20:54:03.464Z,15.60
2017-11-08T20:56:31.936Z,25.20
2017-11-08T20:58:59.916Z,16.60
2017-11-08T21:01:27.768Z,18.30
2017-11-08T21:03:56.067Z,14.73
2017-11-08T21:06:23.823Z,22.87
2017-11-08T21:08:51.578Z,21.55
2017-11-08T21:11:19.444Z,15.00
2017-11-08T21:13:47.675Z,19.52
2017-11-08T21:16:15.582Z,17.00
2017-11-08T21:18:43.653Z,26.25
2017-11-08T21:21:11.702Z,18.42
2017-11-08T21:23:39.702Z,22.73
2017-11-08T21:26:07.762Z,18.58
2017-11-08T21:28:35.527Z,23.77
2017-11-08T21:31:03.293Z,36.63
2017-11-08T21:33:31.370Z,26.33
2017-11-08T21:35:59.123Z,25.02
2017-11-08T21:38:26.891Z,21.65
2017-11-08T21:40:54.800Z,19.87
2017-11-08T21:43:22.518Z,19.73
2017-11-08T21:45:50.389Z,19.95
2017-11-08T21:48:18.415Z,18.42
2017-11-08T21:50:46.225Z,18.65
2017-11-08T21:53:13.893Z,19.25
2017-11-08T21:55:41.747Z,28.92
2017-11-08T21:58:09.531Z,21.70
2017-11-08T22:00:37.086Z,17.92
2017-11-08T22:03:05.552Z,19.33
2017-11-08T22:05:33.314Z,19.15
2017-11-08T22:08:00.979Z,24.05
2017-11-08T22:10:28.960Z,19.17
2017-11-08T22:12:56.674Z,26.67
2017-11-08T22:15:24.305Z,20.90
2017-11-08T22:17:52.033Z,28.27
2017-11-08T22:20:19.593Z,19.05
2017-11-08T22:22:47.257Z,22.75
2017-11-08T22:25:14.943Z,19.48
2017-11-08T22:27:42.520Z,22.08
2017-11-08T22:30:10.137Z,21.85
2017-11-08T22:32:37.899Z,24.65
2017-11-08T22:35:05.467Z,18.77
2017-11-08T22:37:33.019Z,23.62
2017-11-08T22:40:00.876Z,18.80
2017-11-08T22:42:28.446Z,18.85
2017-11-08T22:44:56.017Z,22.67
2017-11-08T22:47:23.607Z,20.17
2017-11-08T22:49:51.168Z,20.12
2017-11-08T22:52:19.708Z,21.33
2017-11-08T22:54:47.267Z,27.48
2017-11-08T22:57:14.784Z,17.42
2017-11-08T22:59:42.295Z,23.48
2017-11-08T23:02:10.272Z,20.05
2017-11-08T23:04:37.813Z,20.20
2017-11-08T23:07:05.368Z,18.70
2017-11-08T23:09:33.437Z,19.87
2017-11-08T23:12:00.959Z,23.45
2017-11-08T23:14:28.480Z,20.75
2017-11-08T23:16:56.038Z,21.42
2017-11-08T23:19:23.565Z,24.55
2017-11-08T23:21:51.130Z,19.25
2017-11-08T23:24:18.715Z,18.35
2017-11-08T23:26:46.251Z,18.37
2017-11-08T23:29:13.803Z,20.05
2017-11-08T23:31:41.571Z,27.15
2017-11-08T23:34:09.107Z,19.10
2017-11-08T23:36:36.637Z,19.37
2017-11-08T23:39:04.395Z,22.48
2017-11-08T23:41:32.013Z,18.83
2017-11-08T23:43:59.574Z,22.05
2017-11-08T23:46:27.335Z,24.37
2017-11-08T23:48:54.871Z,20.85
2017-11-08T23:51:25.163Z,21.55
2017-11-08T23:53:52.982Z,20.30
2017-11-08T23:56:32.329Z,18.33
2017-11-08T23:59:00.475Z,23.55
